sensor_id;sensor_type;location;lat;lon;timestamp;pressure;altitude;pressure_sealevel;temperature;humidity
42603;BME280;28233;55.748;48.752;2023-05-29T00:00:41;98964.13;;;13.46;100.00
42603;BME280;28233;55.748;48.752;2023-05-29T00:02:44;98970.00;;;13.44;100.00
42603;BME280;28233;55.748;48.752;2023-05-29T00:04:47;98954.41;;;13.36;100.00
42603;BME280;28233;55.748;48.752;2023-05-29T00:06:50;98961.97;;;13.39;100.00
42603;BME280;28233;55.748;48.752;2023-05-29T00:08:53;98968.22;;;13.36;100.00
42603;BME280;28233;55.748;48.752;2023-05-29T00:10:56;98955.38;;;13.28;100.00
42603;BME280;28233;55.748;48.752;2023-05-29T00:12:58;98963.09;;;13.22;100.00
42603;BME280;28233;55.748;48.752;2023-05-29T00:15:04;98958.16;;;13.16;100.00
42603;BME280;28233;55.748;48.752;2023-05-29T00:17:08;98964.41;;;13.13;100.00
42603;BME280;28233;55.748;48.752;2023-05-29T00:19:11;98978.41;;;13.07;100.00
42603;BME280;28233;55.748;48.752;2023-05-29T00:21:14;98967.31;;;13.04;100.00
42603;BME280;28233;55.748;48.752;2023-05-29T00:23:16;98969.94;;;13.00;100.00
42603;BME280;28233;55.748;48.752;2023-05-29T00:25:19;98961.94;;;12.95;100.00
42603;BME280;28233;55.748;48.752;2023-05-29T00:27:22;98972.09;;;12.91;100.00
42603;BME280;28233;55.748;48.752;2023-05-29T00:29:25;98970.47;;;12.90;100.00
42603;BME280;28233;55.748;48.752;2023-05-29T00:31:28;98967.16;;;12.84;100.00
42603;BME280;28233;55.748;48.752;2023-05-29T00:33:30;98966.72;;;12.82;100.00
42603;BME280;28233;55.748;48.752;2023-05-29T00:35:33;98965.47;;;12.80;100.00
42603;BME280;28233;55.748;48.752;2023-05-29T00:37:36;98968.91;;;12.77;100.00
42603;BME280;28233;55.748;48.752;2023-05-29T00:39:38;98972.34;;;12.74;100.00
42603;BME280;28233;55.748;48.752;2023-05-29T00:41:41;98971.56;;;12.73;100.00
42603;BME280;28233;55.748;48.752;2023-05-29T00:43:44;98977.41;;;12.72;100.00
42603;BME280;28233;55.748;48.752;2023-05-29T00:45:47;98964.00;;;12.70;100.00
42603;BME280;28233;55.748;48.752;2023-05-29T00:47:50;98965.59;;;12.71;100.00
42603;BME280;28233;55.748;48.752;2023-05-29T00:49:53;98965.59;;;12.71;100.00
42603;BME280;28233;55.748;48.752;2023-05-29T00:51:57;98963.16;;;12.69;100.00
42603;BME280;28233;55.748;48.752;2023-05-29T00:54:00;98957.66;;;12.69;100.00
42603;BME280;28233;55.748;48.752;2023-05-29T00:56:03;98958.03;;;12.68;100.00
42603;BME280;28233;55.748;48.752;2023-05-29T00:58:06;98958.38;;;12.66;100.00
42603;BME280;28233;55.748;48.752;2023-05-29T01:00:09;98970.19;;;12.67;100.00
42603;BME280;28233;55.748;48.752;2023-05-29T01:02:16;98965.03;;;12.65;100.00
42603;BME280;28233;55.748;48.752;2023-05-29T01:04:20;98961.47;;;12.65;100.00
42603;BME280;28233;55.748;48.752;2023-05-29T01:06:23;98955.63;;;12.66;100.00
42603;BME280;28233;55.748;48.752;2023-05-29T01:08:26;98965.03;;;12.65;100.00
42603;BME280;28233;55.748;48.752;2023-05-29T01:10:29;98953.66;;;12.67;100.00
42603;BME280;28233;55.748;48.752;2023-05-29T01:12:43;98955.63;;;12.66;100.00
42603;BME280;28233;55.748;48.752;2023-05-29T01:17:04;98954.91;;;12.69;100.00
42603;BME280;28233;55.748;48.752;2023-05-29T01:28:01;98967.03;;;12.81;100.00
42603;BME280;28233;55.748;48.752;2023-05-29T01:30:07;98963.94;;;12.82;100.00
42603;BME280;28233;55.748;48.752;2023-05-29T01:32:11;98969.09;;;12.84;100.00
42603;BME280;28233;55.748;48.752;2023-05-29T01:34:14;98971.50;;;12.85;100.00
42603;BME280;28233;55.748;48.752;2023-05-29T01:36:16;98975.19;;;12.89;100.00
42603;BME280;28233;55.748;48.752;2023-05-29T01:38:19;98974.47;;;12.93;100.00
42603;BME280;28233;55.748;48.752;2023-05-29T01:40:22;98978.47;;;12.95;100.00
42603;BME280;28233;55.748;48.752;2023-05-29T01:42:26;98986.88;;;12.99;100.00
42603;BME280;28233;55.748;48.752;2023-05-29T01:44:30;98984.19;;;13.02;100.00
42603;BME280;28233;55.748;48.752;2023-05-29T01:46:33;98988.31;;;13.08;100.00
42603;BME280;28233;55.748;48.752;2023-05-29T01:48:37;98986.00;;;13.10;100.00
42603;BME280;28233;55.748;48.752;2023-05-29T01:50:41;98992.78;;;13.13;100.00
42603;BME280;28233;55.748;48.752;2023-05-29T01:52:46;98999.22;;;13.17;100.00
42603;BME280;28233;55.748;48.752;2023-05-29T01:54:48;99000.47;;;13.20;100.00
42603;BME280;28233;55.748;48.752;2023-05-29T01:56:51;99005.59;;;13.21;100.00
42603;BME280;28233;55.748;48.752;2023-05-29T01:58:55;99008.81;;;13.23;100.00
42603;BME280;28233;55.748;48.752;2023-05-29T02:00:59;99016.41;;;13.26;100.00
42603;BME280;28233;55.748;48.752;2023-05-29T02:03:02;99020.31;;;13.25;100.00
42603;BME280;28233;55.748;48.752;2023-05-29T02:05:07;99020.44;;;13.29;100.00
42603;BME280;28233;55.748;48.752;2023-05-29T02:07:10;99035.38;;;13.28;100.00
42603;BME280;28233;55.748;48.752;2023-05-29T02:09:17;99025.47;;;13.27;100.00
42603;BME280;28233;55.748;48.752;2023-05-29T02:11:20;99019.97;;;13.27;100.00
42603;BME280;28233;55.748;48.752;2023-05-29T02:13:24;99029.88;;;13.28;100.00
42603;BME280;28233;55.748;48.752;2023-05-29T02:15:27;99031.00;;;13.27;100.00
42603;BME280;28233;55.748;48.752;2023-05-29T02:17:30;99037.66;;;13.26;100.00
42603;BME280;28233;55.748;48.752;2023-05-29T02:19:33;99042.38;;;13.25;100.00
42603;BME280;28233;55.748;48.752;2023-05-29T02:21:39;99032.06;;;13.22;100.00
42603;BME280;28233;55.748;48.752;2023-05-29T02:23:43;99030.78;;;13.32;100.00
42603;BME280;28233;55.748;48.752;2023-05-29T02:25:46;99036.03;;;13.37;100.00
42603;BME280;28233;55.748;48.752;2023-05-29T02:27:49;99036.94;;;13.41;100.00
42603;BME280;28233;55.748;48.752;2023-05-29T02:29:52;99038.19;;;13.44;100.00
42603;BME280;28233;55.748;48.752;2023-05-29T02:31:54;99035.88;;;13.46;100.00
42603;BME280;28233;55.748;48.752;2023-05-29T02:33:57;99035.63;;;13.51;100.00
42603;BME280;28233;55.748;48.752;2023-05-29T02:36:00;99045.88;;;13.50;100.00
42603;BME280;28233;55.748;48.752;2023-05-29T02:38:02;99050.59;;;13.50;100.00
42603;BME280;28233;55.748;48.752;2023-05-29T02:40:05;99059.75;;;13.54;100.00
42603;BME280;28233;55.748;48.752;2023-05-29T02:42:11;99052.28;;;13.55;100.00
42603;BME280;28233;55.748;48.752;2023-05-29T02:44:14;99050.78;;;13.57;100.00
42603;BME280;28233;55.748;48.752;2023-05-29T02:46:17;99054.06;;;13.63;100.00
42603;BME280;28233;55.748;48.752;2023-05-29T02:48:19;99047.38;;;13.64;100.00
42603;BME280;28233;55.748;48.752;2023-05-29T02:50:22;99050.84;;;13.61;100.00
42603;BME280;28233;55.748;48.752;2023-05-29T02:52:25;99054.53;;;13.65;100.00
42603;BME280;28233;55.748;48.752;2023-05-29T02:54:28;99052.66;;;13.69;100.00
42603;BME280;28233;55.748;48.752;2023-05-29T02:56:30;99050.34;;;13.71;100.00
42603;BME280;28233;55.748;48.752;2023-05-29T02:58:33;99056.41;;;13.77;100.00
42603;BME280;28233;55.748;48.752;2023-05-29T03:00:38;99048.22;;;13.80;100.00
42603;BME280;28233;55.748;48.752;2023-05-29T03:02:40;99047.16;;;13.85;100.00
42603;BME280;28233;55.748;48.752;2023-05-29T03:04:44;99058.38;;;13.92;100.00
42603;BME280;28233;55.748;48.752;2023-05-29T03:06:46;99060.44;;;13.95;100.00
42603;BME280;28233;55.748;48.752;2023-05-29T03:08:49;99063.22;;;13.95;100.00
42603;BME280;28233;55.748;48.752;2023-05-29T03:10:54;99061.53;;;14.06;100.00
42603;BME280;28233;55.748;48.752;2023-05-29T03:12:57;99065.16;;;14.10;100.00
42603;BME280;28233;55.748;48.752;2023-05-29T03:15:00;99066.06;;;14.14;100.00
42603;BME280;28233;55.748;48.752;2023-05-29T03:17:07;99061.06;;;14.20;100.00
42603;BME280;28233;55.748;48.752;2023-05-29T03:19:10;99060.16;;;14.32;100.00
42603;BME280;28233;55.748;48.752;2023-05-29T03:21:12;99068.28;;;14.41;100.00
42603;BME280;28233;55.748;48.752;2023-05-29T03:23:15;99065.59;;;14.44;100.00
42603;BME280;28233;55.748;48.752;2023-05-29T03:25:18;99070.13;;;14.52;100.00
42603;BME280;28233;55.748;48.752;2023-05-29T03:27:22;99062.81;;;14.60;100.00
42603;BME280;28233;55.748;48.752;2023-05-29T03:29:25;99069.34;;;14.68;100.00
42603;BME280;28233;55.748;48.752;2023-05-29T03:31:27;99073.78;;;14.72;100.00
42603;BME280;28233;55.748;48.752;2023-05-29T03:33:30;99070.97;;;14.88;100.00
42603;BME280;28233;55.748;48.752;2023-05-29T03:35:33;99077.19;;;15.01;100.00
42603;BME280;28233;55.748;48.752;2023-05-29T03:37:35;99077.19;;;15.20;100.00
42603;BME280;28233;55.748;48.752;2023-05-29T03:39:38;99078.06;;;15.25;100.00
42603;BME280;28233;55.748;48.752;2023-05-29T03:41:41;99087.31;;;15.32;100.00
42603;BME280;28233;55.748;48.752;2023-05-29T03:43:43;99087.47;;;15.39;100.00
42603;BME280;28233;55.748;48.752;2023-05-29T03:45:46;99094.22;;;15.42;100.00
42603;BME280;28233;55.748;48.752;2023-05-29T03:47:49;99094.75;;;15.48;100.00
42603;BME280;28233;55.748;48.752;2023-05-29T03:49:52;99101.00;;;15.64;100.00
42603;BME280;28233;55.748;48.752;2023-05-29T03:51:54;99100.94;;;15.60;100.00
42603;BME280;28233;55.748;48.752;2023-05-29T03:53:57;99108.16;;;15.65;100.00
42603;BME280;28233;55.748;48.752;2023-05-29T03:55:59;99118.47;;;15.68;100.00
42603;BME280;28233;55.748;48.752;2023-05-29T03:58:02;99113.97;;;15.79;100.00
42603;BME280;28233;55.748;48.752;2023-05-29T04:00:09;99112.97;;;15.88;100.00
42603;BME280;28233;55.748;48.752;2023-05-29T04:02:15;99117.41;;;15.92;100.00
42603;BME280;28233;55.748;48.752;2023-05-29T04:04:21;99114.78;;;15.80;100.00
42603;BME280;28233;55.748;48.752;2023-05-29T04:06:23;99116.41;;;15.81;100.00
42603;BME280;28233;55.748;48.752;2023-05-29T04:08:26;99120.06;;;15.85;100.00
42603;BME280;28233;55.748;48.752;2023-05-29T04:10:29;99132.38;;;15.88;100.00
42603;BME280;28233;55.748;48.752;2023-05-29T04:12:32;99147.81;;;15.89;100.00
42603;BME280;28233;55.748;48.752;2023-05-29T04:14:35;99134.13;;;15.76;100.00
42603;BME280;28233;55.748;48.752;2023-05-29T04:16:37;99137.50;;;15.70;100.00
42603;BME280;28233;55.748;48.752;2023-05-29T04:18:41;99134.31;;;15.68;98.33
42603;BME280;28233;55.748;48.752;2023-05-29T04:20:43;99149.19;;;15.79;99.27
42603;BME280;28233;55.748;48.752;2023-05-29T04:22:49;99135.41;;;15.82;100.00
42603;BME280;28233;55.748;48.752;2023-05-29T04:24:52;99135.50;;;15.86;98.16
42603;BME280;28233;55.748;48.752;2023-05-29T04:26:55;99138.03;;;16.18;100.00
42603;BME280;28233;55.748;48.752;2023-05-29T04:28:58;99140.38;;;16.39;100.00
42603;BME280;28233;55.748;48.752;2023-05-29T04:31:01;99134.91;;;16.42;98.27
42603;BME280;28233;55.748;48.752;2023-05-29T04:33:05;99142.16;;;16.51;96.45
42603;BME280;28233;55.748;48.752;2023-05-29T04:35:08;99137.06;;;16.53;96.73
42603;BME280;28233;55.748;48.752;2023-05-29T04:37:11;99139.63;;;16.65;94.44
42603;BME280;28233;55.748;48.752;2023-05-29T04:39:15;99139.28;;;16.93;99.08
42603;BME280;28233;55.748;48.752;2023-05-29T04:41:18;99139.66;;;17.18;100.00
42603;BME280;28233;55.748;48.752;2023-05-29T04:43:21;99146.25;;;17.37;100.00
42603;BME280;28233;55.748;48.752;2023-05-29T04:45:25;99145.94;;;17.42;98.66
42603;BME280;28233;55.748;48.752;2023-05-29T04:47:27;99155.53;;;17.48;94.68
42603;BME280;28233;55.748;48.752;2023-05-29T04:49:30;99145.06;;;17.38;93.06
42603;BME280;28233;55.748;48.752;2023-05-29T04:51:33;99164.00;;;17.28;91.49
42603;BME280;28233;55.748;48.752;2023-05-29T04:53:38;99152.16;;;17.05;90.30
42603;BME280;28233;55.748;48.752;2023-05-29T04:55:42;99143.81;;;16.78;89.22
42603;BME280;28233;55.748;48.752;2023-05-29T04:57:45;99134.94;;;16.69;91.52
42603;BME280;28233;55.748;48.752;2023-05-29T04:59:48;99149.25;;;16.71;96.72
42603;BME280;28233;55.748;48.752;2023-05-29T05:01:50;99144.38;;;16.64;95.59
42603;BME280;28233;55.748;48.752;2023-05-29T05:03:53;99148.09;;;16.49;90.01
42603;BME280;28233;55.748;48.752;2023-05-29T05:05:58;99158.41;;;16.48;90.83
42603;BME280;28233;55.748;48.752;2023-05-29T05:08:01;99151.31;;;16.51;91.89
42603;BME280;28233;55.748;48.752;2023-05-29T05:10:04;99159.63;;;16.51;90.36
42603;BME280;28233;55.748;48.752;2023-05-29T05:12:07;99161.91;;;16.45;90.15
42603;BME280;28233;55.748;48.752;2023-05-29T05:14:10;99156.16;;;16.58;90.22
42603;BME280;28233;55.748;48.752;2023-05-29T05:16:12;99159.91;;;16.69;89.30
42603;BME280;28233;55.748;48.752;2023-05-29T05:18:15;99153.13;;;16.89;92.89
42603;BME280;28233;55.748;48.752;2023-05-29T05:20:18;99159.44;;;17.13;92.69
42603;BME280;28233;55.748;48.752;2023-05-29T05:22:20;99165.72;;;17.37;92.45
42603;BME280;28233;55.748;48.752;2023-05-29T05:24:23;99170.66;;;17.50;89.39
42603;BME280;28233;55.748;48.752;2023-05-29T05:26:26;99175.44;;;17.53;87.15
42603;BME280;28233;55.748;48.752;2023-05-29T05:28:29;99175.59;;;17.64;88.31
42603;BME280;28233;55.748;48.752;2023-05-29T05:30:31;99179.53;;;17.63;84.44
42603;BME280;28233;55.748;48.752;2023-05-29T05:32:34;99188.03;;;17.74;85.67
42603;BME280;28233;55.748;48.752;2023-05-29T05:34:37;99189.78;;;17.86;84.94
42603;BME280;28233;55.748;48.752;2023-05-29T05:36:40;99174.06;;;18.01;83.90
42603;BME280;28233;55.748;48.752;2023-05-29T05:38:43;99182.03;;;18.02;80.69
42603;BME280;28233;55.748;48.752;2023-05-29T05:40:46;99187.84;;;17.90;79.61
42603;BME280;28233;55.748;48.752;2023-05-29T05:42:49;99180.31;;;17.94;81.88
42603;BME280;28233;55.748;48.752;2023-05-29T05:44:52;99181.38;;;17.82;79.81
42603;BME280;28233;55.748;48.752;2023-05-29T05:46:55;99178.50;;;17.75;77.41
42603;BME280;28233;55.748;48.752;2023-05-29T05:48:58;99184.22;;;17.86;75.75
42603;BME280;28233;55.748;48.752;2023-05-29T05:51:01;99174.13;;;18.08;77.44
42603;BME280;28233;55.748;48.752;2023-05-29T05:53:04;99181.56;;;18.34;76.56
42603;BME280;28233;55.748;48.752;2023-05-29T05:55:07;99185.25;;;18.45;75.88
42603;BME280;28233;55.748;48.752;2023-05-29T05:57:10;99191.28;;;18.51;73.08
42603;BME280;28233;55.748;48.752;2023-05-29T05:59:13;99184.28;;;18.71;75.69
42603;BME280;28233;55.748;48.752;2023-05-29T06:01:16;99187.59;;;18.84;75.16
42603;BME280;28233;55.748;48.752;2023-05-29T06:03:19;99190.34;;;18.77;71.95
42603;BME280;28233;55.748;48.752;2023-05-29T06:05:22;99182.28;;;18.68;71.16
42603;BME280;28233;55.748;48.752;2023-05-29T06:07:24;99184.19;;;18.61;70.91
42603;BME280;28233;55.748;48.752;2023-05-29T06:09:27;99202.41;;;18.54;69.77
42603;BME280;28233;55.748;48.752;2023-05-29T06:11:30;99176.53;;;18.47;67.74
42603;BME280;28233;55.748;48.752;2023-05-29T06:13:34;99186.69;;;18.32;66.62
42603;BME280;28233;55.748;48.752;2023-05-29T06:15:36;99186.22;;;18.23;66.10
42603;BME280;28233;55.748;48.752;2023-05-29T06:17:39;99189.31;;;18.17;66.14
42603;BME280;28233;55.748;48.752;2023-05-29T06:19:42;99193.22;;;18.09;65.52
42603;BME280;28233;55.748;48.752;2023-05-29T06:21:45;99190.22;;;17.91;64.96
42603;BME280;28233;55.748;48.752;2023-05-29T06:23:48;99187.38;;;17.84;62.71
42603;BME280;28233;55.748;48.752;2023-05-29T06:25:50;99199.97;;;17.78;63.29
42603;BME280;28233;55.748;48.752;2023-05-29T06:27:53;99195.13;;;17.71;60.58
42603;BME280;28233;55.748;48.752;2023-05-29T06:29:56;99201.13;;;17.73;59.67
42603;BME280;28233;55.748;48.752;2023-05-29T06:31:58;99216.16;;;17.72;59.43
42603;BME280;28233;55.748;48.752;2023-05-29T06:34:01;99208.97;;;17.68;59.57
42603;BME280;28233;55.748;48.752;2023-05-29T06:36:05;99209.91;;;17.79;60.92
42603;BME280;28233;55.748;48.752;2023-05-29T06:38:11;99214.81;;;17.89;60.59
42603;BME280;28233;55.748;48.752;2023-05-29T06:40:14;99217.56;;;17.86;58.47
42603;BME280;28233;55.748;48.752;2023-05-29T06:42:18;99214.78;;;17.86;58.05
42603;BME280;28233;55.748;48.752;2023-05-29T06:44:20;99204.19;;;17.95;59.22
42603;BME280;28233;55.748;48.752;2023-05-29T06:46:23;99209.78;;;17.99;59.21
42603;BME280;28233;55.748;48.752;2023-05-29T06:48:26;99224.06;;;17.97;58.86
42603;BME280;28233;55.748;48.752;2023-05-29T06:50:28;99230.06;;;17.99;60.06
42603;BME280;28233;55.748;48.752;2023-05-29T06:52:31;99230.75;;;17.92;60.01
42603;BME280;28233;55.748;48.752;2023-05-29T06:54:33;99224.28;;;17.85;58.95
42603;BME280;28233;55.748;48.752;2023-05-29T06:56:36;99230.81;;;17.69;58.18
42603;BME280;28233;55.748;48.752;2023-05-29T06:58:39;99238.31;;;17.65;58.87
42603;BME280;28233;55.748;48.752;2023-05-29T07:00:42;99225.88;;;17.56;58.57
42603;BME280;28233;55.748;48.752;2023-05-29T07:02:45;99255.22;;;17.53;58.17
42603;BME280;28233;55.748;48.752;2023-05-29T07:04:48;99228.91;;;17.47;58.48
42603;BME280;28233;55.748;48.752;2023-05-29T07:06:50;99242.28;;;17.38;58.46
42603;BME280;28233;55.748;48.752;2023-05-29T07:08:54;99238.66;;;17.33;59.45
42603;BME280;28233;55.748;48.752;2023-05-29T07:10:56;99238.69;;;17.37;60.17
42603;BME280;28233;55.748;48.752;2023-05-29T07:12:59;99265.31;;;17.38;60.32
42603;BME280;28233;55.748;48.752;2023-05-29T07:15:02;99253.09;;;17.43;59.00
42603;BME280;28233;55.748;48.752;2023-05-29T07:17:07;99264.34;;;17.53;58.48
42603;BME280;28233;55.748;48.752;2023-05-29T07:19:10;99274.50;;;17.69;59.59
42603;BME280;28233;55.748;48.752;2023-05-29T07:21:23;99242.53;;;17.82;57.11
42603;BME280;28233;55.748;48.752;2023-05-29T07:23:26;99253.38;;;17.91;57.67
42603;BME280;28233;55.748;48.752;2023-05-29T07:25:30;99264.06;;;17.89;56.72
42603;BME280;28233;55.748;48.752;2023-05-29T07:27:32;99260.63;;;17.99;55.91
42603;BME280;28233;55.748;48.752;2023-05-29T07:29:35;99280.53;;;18.05;55.32
42603;BME280;28233;55.748;48.752;2023-05-29T07:31:38;99277.00;;;18.08;55.10
42603;BME280;28233;55.748;48.752;2023-05-29T07:33:43;99280.97;;;18.07;54.69
42603;BME280;28233;55.748;48.752;2023-05-29T07:35:47;99294.19;;;18.17;55.09
42603;BME280;28233;55.748;48.752;2023-05-29T07:37:52;99279.94;;;18.22;55.05
42603;BME280;28233;55.748;48.752;2023-05-29T07:39:56;99286.03;;;18.31;55.97
42603;BME280;28233;55.748;48.752;2023-05-29T07:41:59;99292.38;;;18.32;56.77
42603;BME280;28233;55.748;48.752;2023-05-29T07:44:03;99275.94;;;18.20;57.43
42603;BME280;28233;55.748;48.752;2023-05-29T07:46:06;99279.16;;;18.22;57.70
42603;BME280;28233;55.748;48.752;2023-05-29T07:48:08;99297.22;;;18.38;56.99
42603;BME280;28233;55.748;48.752;2023-05-29T07:50:13;99304.09;;;18.48;57.69
42603;BME280;28233;55.748;48.752;2023-05-29T07:52:16;99295.50;;;18.61;57.74
42603;BME280;28233;55.748;48.752;2023-05-29T07:54:18;99286.94;;;18.76;58.57
42603;BME280;28233;55.748;48.752;2023-05-29T07:56:22;99291.84;;;18.90;57.03
42603;BME280;28233;55.748;48.752;2023-05-29T07:58:25;99325.25;;;18.90;55.74
42603;BME280;28233;55.748;48.752;2023-05-29T08:00:28;99302.47;;;18.77;55.54
42603;BME280;28233;55.748;48.752;2023-05-29T08:02:30;99298.72;;;18.63;56.46
42603;BME280;28233;55.748;48.752;2023-05-29T08:04:33;99318.41;;;18.50;57.04
42603;BME280;28233;55.748;48.752;2023-05-29T08:06:36;99295.03;;;18.55;57.70
42603;BME280;28233;55.748;48.752;2023-05-29T08:08:39;99320.19;;;18.66;58.08
42603;BME280;28233;55.748;48.752;2023-05-29T08:10:41;99311.06;;;18.69;57.92
42603;BME280;28233;55.748;48.752;2023-05-29T08:12:44;99324.22;;;18.72;57.86
42603;BME280;28233;55.748;48.752;2023-05-29T08:14:46;99332.34;;;18.84;55.82
42603;BME280;28233;55.748;48.752;2023-05-29T08:16:49;99353.84;;;18.87;52.36
42603;BME280;28233;55.748;48.752;2023-05-29T08:18:52;99330.72;;;18.79;51.81
42603;BME280;28233;55.748;48.752;2023-05-29T08:20:55;99335.84;;;18.77;52.12
42603;BME280;28233;55.748;48.752;2023-05-29T08:22:58;99329.56;;;18.84;52.01
42603;BME280;28233;55.748;48.752;2023-05-29T08:25:01;99339.50;;;18.85;51.73
42603;BME280;28233;55.748;48.752;2023-05-29T08:27:06;99361.75;;;18.82;52.26
42603;BME280;28233;55.748;48.752;2023-05-29T08:29:09;99351.31;;;18.75;52.73
42603;BME280;28233;55.748;48.752;2023-05-29T08:31:12;99360.31;;;18.65;53.62
42603;BME280;28233;55.748;48.752;2023-05-29T08:33:15;99362.72;;;18.63;54.87
42603;BME280;28233;55.748;48.752;2023-05-29T08:35:18;99373.06;;;18.66;54.51
42603;BME280;28233;55.748;48.752;2023-05-29T08:37:20;99367.16;;;18.71;53.18
42603;BME280;28233;55.748;48.752;2023-05-29T08:39:23;99363.19;;;18.72;52.94
42603;BME280;28233;55.748;48.752;2023-05-29T08:44:03;99364.59;;;18.55;54.15
42603;BME280;28233;55.748;48.752;2023-05-29T08:46:08;99380.06;;;18.52;55.04
42603;BME280;28233;55.748;48.752;2023-05-29T08:48:12;99373.72;;;18.55;54.87
42603;BME280;28233;55.748;48.752;2023-05-29T08:50:16;99396.38;;;18.54;54.73
42603;BME280;28233;55.748;48.752;2023-05-29T08:52:23;99385.97;;;18.47;54.08
42603;BME280;28233;55.748;48.752;2023-05-29T08:54:31;99404.16;;;18.41;53.85
42603;BME280;28233;55.748;48.752;2023-05-29T08:56:35;99389.00;;;18.35;53.45
42603;BME280;28233;55.748;48.752;2023-05-29T08:58:38;99414.88;;;18.39;53.96
42603;BME280;28233;55.748;48.752;2023-05-29T09:00:41;99408.56;;;18.42;53.71
42603;BME280;28233;55.748;48.752;2023-05-29T09:02:44;99411.00;;;18.47;52.82
42603;BME280;28233;55.748;48.752;2023-05-29T09:04:47;99403.53;;;18.55;53.98
42603;BME280;28233;55.748;48.752;2023-05-29T09:06:57;99416.31;;;18.59;55.12
42603;BME280;28233;55.748;48.752;2023-05-29T09:09:01;99408.47;;;18.69;54.16
42603;BME280;28233;55.748;48.752;2023-05-29T09:11:04;99428.38;;;18.71;52.87
42603;BME280;28233;55.748;48.752;2023-05-29T09:13:07;99403.31;;;18.67;51.83
42603;BME280;28233;55.748;48.752;2023-05-29T09:15:19;99406.59;;;18.76;52.19
42603;BME280;28233;55.748;48.752;2023-05-29T09:17:22;99420.66;;;18.87;52.02
42603;BME280;28233;55.748;48.752;2023-05-29T09:19:25;99407.09;;;18.86;51.43
42603;BME280;28233;55.748;48.752;2023-05-29T09:21:28;99416.59;;;18.81;52.31
42603;BME280;28233;55.748;48.752;2023-05-29T09:23:35;99423.72;;;18.78;52.80
42603;BME280;28233;55.748;48.752;2023-05-29T09:25:42;99405.53;;;18.88;53.29
42603;BME280;28233;55.748;48.752;2023-05-29T09:27:45;99410.91;;;19.04;52.90
42603;BME280;28233;55.748;48.752;2023-05-29T09:29:48;99413.81;;;19.15;53.72
42603;BME280;28233;55.748;48.752;2023-05-29T09:31:51;99413.44;;;19.20;52.78
42603;BME280;28233;55.748;48.752;2023-05-29T09:33:53;99415.81;;;19.18;52.27
42603;BME280;28233;55.748;48.752;2023-05-29T09:35:56;99417.94;;;18.94;52.47
42603;BME280;28233;55.748;48.752;2023-05-29T09:38:00;99425.84;;;18.89;53.54
42603;BME280;28233;55.748;48.752;2023-05-29T09:40:05;99425.00;;;18.85;54.36
42603;BME280;28233;55.748;48.752;2023-05-29T09:42:11;99428.16;;;18.83;53.89
42603;BME280;28233;55.748;48.752;2023-05-29T09:44:15;99434.53;;;18.84;55.25
42603;BME280;28233;55.748;48.752;2023-05-29T09:46:17;99425.66;;;18.74;54.53
42603;BME280;28233;55.748;48.752;2023-05-29T09:48:23;99443.28;;;18.86;55.14
42603;BME280;28233;55.748;48.752;2023-05-29T09:50:26;99457.09;;;19.09;53.44
42603;BME280;28233;55.748;48.752;2023-05-29T09:52:30;99417.38;;;19.15;53.71
42603;BME280;28233;55.748;48.752;2023-05-29T09:54:34;99436.88;;;19.15;53.78
42603;BME280;28233;55.748;48.752;2023-05-29T09:56:41;99428.53;;;19.15;53.32
42603;BME280;28233;55.748;48.752;2023-05-29T09:58:45;99421.69;;;19.09;51.68
42603;BME280;28233;55.748;48.752;2023-05-29T10:00:50;99444.38;;;19.08;50.57
42603;BME280;28233;55.748;48.752;2023-05-29T10:02:54;99428.78;;;19.03;50.64
42603;BME280;28233;55.748;48.752;2023-05-29T10:04:58;99464.09;;;18.95;51.45
42603;BME280;28233;55.748;48.752;2023-05-29T10:07:12;99443.59;;;19.11;51.81
42603;BME280;28233;55.748;48.752;2023-05-29T10:09:19;99443.03;;;19.32;51.59
42603;BME280;28233;55.748;48.752;2023-05-29T10:11:24;99445.88;;;19.39;51.32
42603;BME280;28233;55.748;48.752;2023-05-29T10:13:36;99446.81;;;19.54;49.84
42603;BME280;28233;55.748;48.752;2023-05-29T10:15:45;99450.72;;;19.46;48.30
42603;BME280;28233;55.748;48.752;2023-05-29T10:17:59;99453.38;;;19.35;49.81
42603;BME280;28233;55.748;48.752;2023-05-29T10:20:05;99468.50;;;19.34;50.37
42603;BME280;28233;55.748;48.752;2023-05-29T10:22:11;99464.19;;;19.40;50.36
42603;BME280;28233;55.748;48.752;2023-05-29T10:24:14;99462.16;;;19.33;50.49
42603;BME280;28233;55.748;48.752;2023-05-29T10:26:27;99472.03;;;19.27;50.50
42603;BME280;28233;55.748;48.752;2023-05-29T10:28:31;99475.53;;;19.20;50.66
42603;BME280;28233;55.748;48.752;2023-05-29T10:30:39;99474.66;;;19.13;50.89
42603;BME280;28233;55.748;48.752;2023-05-29T10:35:10;99473.03;;;19.12;52.06
42603;BME280;28233;55.748;48.752;2023-05-29T10:39:29;99472.03;;;19.27;51.78
42603;BME280;28233;55.748;48.752;2023-05-29T10:41:32;99481.66;;;19.33;51.16
42603;BME280;28233;55.748;48.752;2023-05-29T10:43:36;99477.72;;;19.41;50.87
42603;BME280;28233;55.748;48.752;2023-05-29T10:47:42;99493.75;;;19.52;49.79
42603;BME280;28233;55.748;48.752;2023-05-29T10:49:49;99492.22;;;19.54;49.54
42603;BME280;28233;55.748;48.752;2023-05-29T10:51:53;99496.59;;;19.59;50.46
42603;BME280;28233;55.748;48.752;2023-05-29T10:53:55;99484.34;;;19.67;50.88
42603;BME280;28233;55.748;48.752;2023-05-29T10:56:01;99503.53;;;19.69;50.72
42603;BME280;28233;55.748;48.752;2023-05-29T10:58:12;99501.44;;;19.62;49.79
42603;BME280;28233;55.748;48.752;2023-05-29T11:00:16;99498.94;;;19.50;49.88
42603;BME280;28233;55.748;48.752;2023-05-29T11:02:22;99491.94;;;19.29;50.91